Okarche, Oklahoma
Current Conditions -  °F | °C
As of 1:55 AM on Monday 22 Dec 2014 (Local Time) from KRQO Reporting Station
Overcast Overcast  
Wind Chill: 40°   Ceiling: 900
Heat Index: 46°   Visibility: NA
Dew Point: 45°   Wind: 14mph
Humidity: 93%   Direction: 160°SSE
Pressure: 29.56"   Gusts: NA
Location:  35.73°N, 97.98°W
Report Text: KRQO 220755Z AUTO 16012KT OVC009 08/07 A2956 RMK AO2 PWINO
Loading
Personal Weather Stations






























Interactive Weather Map New forecast layout! Learn more

10-Day Weather Forecast

Advertisements
Track Severe Weather on mobile